createdAt,value
2019-02-14T00:01:14.843Z,6.10
2019-02-14T00:03:44.168Z,6.13
2019-02-14T00:06:13.587Z,6.12
2019-02-14T00:08:42.861Z,6.12
2019-02-14T00:11:12.164Z,6.11
2019-02-14T00:13:41.608Z,6.13
2019-02-14T00:16:10.889Z,6.12
2019-02-14T00:18:40.241Z,6.15
2019-02-14T00:21:09.775Z,6.14
2019-02-14T00:23:39.075Z,6.16
2019-02-14T00:26:08.400Z,6.17
2019-02-14T00:28:37.847Z,6.14
2019-02-14T00:31:07.131Z,6.17
2019-02-14T00:33:36.425Z,6.20
2019-02-14T00:36:05.845Z,6.17
2019-02-14T00:38:35.187Z,6.15
2019-02-14T00:41:04.583Z,6.22
2019-02-14T00:43:33.944Z,6.24
2019-02-14T00:46:03.232Z,6.24
2019-02-14T00:48:32.664Z,6.28
2019-02-14T00:51:02.266Z,6.28
2019-02-14T00:53:31.569Z,6.28
2019-02-14T00:56:00.953Z,6.30
2019-02-14T00:58:30.529Z,6.26
2019-02-14T01:00:59.788Z,6.31
2019-02-14T01:03:29.012Z,6.31
2019-02-14T01:05:58.495Z,6.30
2019-02-14T01:08:27.873Z,6.30
2019-02-14T01:10:57.255Z,6.29
2019-02-14T01:13:26.731Z,6.32
2019-02-14T01:15:56.049Z,6.30
2019-02-14T01:18:25.296Z,6.32
2019-02-14T01:20:54.667Z,6.30
2019-02-14T01:23:23.946Z,6.29
2019-02-14T01:25:53.181Z,6.30
2019-02-14T01:28:22.525Z,6.30
2019-02-14T01:30:51.868Z,6.36
2019-02-14T01:33:21.175Z,6.37
2019-02-14T01:35:50.568Z,6.40
2019-02-14T01:38:19.853Z,6.37
2019-02-14T01:40:49.096Z,6.46
2019-02-14T01:43:18.359Z,6.45
2019-02-14T01:45:47.660Z,6.45
2019-02-14T01:48:17.045Z,6.41
2019-02-14T01:50:46.388Z,6.39
2019-02-14T01:53:15.642Z,6.37
2019-02-14T01:55:44.964Z,6.36
2019-02-14T01:58:14.578Z,6.36
2019-02-14T02:00:43.937Z,6.44
2019-02-14T02:03:13.346Z,6.42
2019-02-14T02:05:50.425Z,6.40
2019-02-14T02:08:13.841Z,6.46
2019-02-14T02:10:43.173Z,6.42
2019-02-14T02:13:12.525Z,6.45
2019-02-14T02:15:41.793Z,6.45
2019-02-14T02:18:11.099Z,6.41
2019-02-14T02:20:40.469Z,6.37
2019-02-14T02:23:09.831Z,6.36
2019-02-14T02:25:39.138Z,6.36
2019-02-14T02:28:08.459Z,6.33
2019-02-14T02:30:37.754Z,6.36
2019-02-14T02:33:07.035Z,6.37
2019-02-14T02:35:36.536Z,6.33
2019-02-14T02:38:05.873Z,6.30
2019-02-14T02:40:35.621Z,6.32
2019-02-14T02:43:05.266Z,6.30
2019-02-14T02:45:34.847Z,6.28
2019-02-14T02:48:04.123Z,6.28
2019-02-14T02:50:33.662Z,6.27
2019-02-14T02:53:02.944Z,6.25
2019-02-14T02:55:32.208Z,6.20
2019-02-14T02:58:01.588Z,6.16
2019-02-14T03:00:30.961Z,6.20
2019-02-14T03:03:00.297Z,6.21
2019-02-14T03:05:29.728Z,6.20
2019-02-14T03:07:59.003Z,6.14
2019-02-14T03:10:28.286Z,6.11
2019-02-14T03:12:57.707Z,6.09
2019-02-14T03:15:27.043Z,6.04
2019-02-14T03:17:56.355Z,6.04
2019-02-14T03:20:25.617Z,6.00
2019-02-14T03:22:54.849Z,5.92
2019-02-14T03:25:24.215Z,5.86
2019-02-14T03:27:53.835Z,5.83
2019-02-14T03:30:23.173Z,5.81
2019-02-14T03:32:52.523Z,5.83
2019-02-14T03:35:22.005Z,5.85
2019-02-14T03:37:51.324Z,5.85
2019-02-14T03:40:20.634Z,5.86
2019-02-14T03:42:50.261Z,5.89
2019-02-14T03:45:19.536Z,5.90
2019-02-14T03:47:48.840Z,5.91
2019-02-14T03:50:18.455Z,5.99
2019-02-14T03:52:47.829Z,5.98
2019-02-14T03:55:17.221Z,6.01
2019-02-14T03:57:46.550Z,6.00
2019-02-14T04:00:16.311Z,6.01
2019-02-14T04:02:45.585Z,6.02
2019-02-14T04:05:15.059Z,6.00
2019-02-14T04:07:44.408Z,5.98
2019-02-14T04:10:13.815Z,5.98
2019-02-14T04:12:43.625Z,5.96
2019-02-14T04:15:15.140Z,5.90
2019-02-14T04:17:44.479Z,5.85
2019-02-14T04:20:13.816Z,5.81
2019-02-14T04:22:43.103Z,5.75
2019-02-14T04:25:12.380Z,5.69
2019-02-14T04:27:41.694Z,5.67
2019-02-14T04:30:11.590Z,5.65
2019-02-14T04:32:40.955Z,5.60
2019-02-14T04:35:10.235Z,5.59
2019-02-14T04:37:39.553Z,5.59
2019-02-14T04:40:10.597Z,5.52
2019-02-14T04:42:40.018Z,5.43
2019-02-14T04:45:09.504Z,5.34
2019-02-14T04:47:38.794Z,5.31
2019-02-14T04:50:08.454Z,5.32
2019-02-14T04:52:37.769Z,5.35
2019-02-14T04:55:07.575Z,5.34
2019-02-14T04:57:36.919Z,5.35
2019-02-14T05:00:07.107Z,5.38
2019-02-14T05:02:36.690Z,5.39
2019-02-14T05:05:06.309Z,5.44
2019-02-14T05:07:35.773Z,5.42
2019-02-14T05:10:05.868Z,5.37
2019-02-14T05:12:35.133Z,5.39
2019-02-14T05:15:04.630Z,5.37
2019-02-14T05:17:34.190Z,5.40
2019-02-14T05:20:03.530Z,5.43
2019-02-14T05:22:32.871Z,5.43
2019-02-14T05:25:02.351Z,5.39
2019-02-14T05:27:33.019Z,5.37
2019-02-14T05:30:02.346Z,5.40
2019-02-14T05:32:31.902Z,5.43
2019-02-14T05:35:01.233Z,5.43
2019-02-14T05:37:30.548Z,5.46
2019-02-14T05:39:59.992Z,5.52
2019-02-14T05:42:29.306Z,5.59
2019-02-14T05:44:58.705Z,5.60
2019-02-14T05:47:28.130Z,5.60
2019-02-14T05:49:57.390Z,5.59
2019-02-14T05:52:26.775Z,5.59
2019-02-14T05:54:56.222Z,5.59
2019-02-14T05:57:27.364Z,5.62
2019-02-14T05:59:56.708Z,5.67
2019-02-14T06:02:26.236Z,5.66
2019-02-14T06:04:55.549Z,5.68
2019-02-14T06:07:24.895Z,5.72
2019-02-14T06:09:54.340Z,5.76
2019-02-14T06:12:23.648Z,5.79
2019-02-14T06:14:52.979Z,5.81
2019-02-14T06:17:22.372Z,5.80
2019-02-14T06:19:51.631Z,5.78
2019-02-14T06:22:20.894Z,5.77
2019-02-14T06:24:50.355Z,5.78
2019-02-14T06:27:19.690Z,5.78
2019-02-14T06:29:49.097Z,5.80
2019-02-14T06:32:18.651Z,5.81
2019-02-14T06:34:48.005Z,5.81
2019-02-14T06:37:17.296Z,5.83
2019-02-14T06:39:46.644Z,5.84
2019-02-14T06:42:15.942Z,5.83
2019-02-14T06:44:45.243Z,5.82
2019-02-14T06:47:14.767Z,5.79
2019-02-14T06:49:44.145Z,5.80
2019-02-14T06:52:13.489Z,5.86
2019-02-14T06:54:43.058Z,5.86
2019-02-14T06:57:12.368Z,5.88
2019-02-14T06:59:41.660Z,5.87
2019-02-14T07:02:11.192Z,5.91
2019-02-14T07:04:40.503Z,5.92
2019-02-14T07:07:17.882Z,5.98
2019-02-14T07:09:40.956Z,5.97
2019-02-14T07:12:10.313Z,6.01
2019-02-14T07:14:39.573Z,6.06
2019-02-14T07:17:08.961Z,6.05
2019-02-14T07:19:38.336Z,6.09
2019-02-14T07:22:07.730Z,6.11
2019-02-14T07:24:37.182Z,6.15
2019-02-14T07:27:06.398Z,6.22
2019-02-14T07:29:35.684Z,6.35
2019-02-14T07:32:05.092Z,6.46
2019-02-14T07:34:34.411Z,6.54
2019-02-14T07:37:03.769Z,6.66
2019-02-14T07:39:33.356Z,6.71
2019-02-14T07:42:02.707Z,6.77
2019-02-14T07:44:32.170Z,6.81
2019-02-14T07:47:01.514Z,6.86
2019-02-14T07:49:30.821Z,6.86
2019-02-14T07:52:00.127Z,6.86
2019-02-14T07:54:29.411Z,6.96
2019-02-14T07:56:58.801Z,7.05
2019-02-14T07:59:28.166Z,7.05
2019-02-14T08:01:57.735Z,7.10
2019-02-14T08:04:27.020Z,7.10
2019-02-14T08:06:56.294Z,7.14
2019-02-14T08:09:25.757Z,7.20
2019-02-14T08:11:55.081Z,7.31
2019-02-14T08:14:24.454Z,7.36
2019-02-14T08:16:53.991Z,7.43
2019-02-14T08:19:23.311Z,7.47
2019-02-14T08:21:52.671Z,7.43
2019-02-14T08:24:22.025Z,7.42
2019-02-14T08:26:51.301Z,7.39
2019-02-14T08:29:20.596Z,7.43
2019-02-14T08:31:50.098Z,7.51
2019-02-14T08:34:19.427Z,7.61
2019-02-14T08:36:48.704Z,7.68
2019-02-14T08:39:18.222Z,7.82
2019-02-14T08:41:47.533Z,7.86
2019-02-14T08:44:16.803Z,7.89
2019-02-14T08:46:46.244Z,8.06
2019-02-14T08:49:15.589Z,8.12
2019-02-14T08:51:44.951Z,8.08
2019-02-14T08:54:14.402Z,8.11
2019-02-14T08:56:43.667Z,8.25
2019-02-14T08:59:12.966Z,8.35
2019-02-14T09:01:42.477Z,8.32
2019-02-14T09:04:11.781Z,8.34
2019-02-14T09:06:41.099Z,8.37
2019-02-14T09:09:10.641Z,8.44
2019-02-14T09:11:40.169Z,8.81
2019-02-14T09:14:09.487Z,9.03
2019-02-14T09:16:38.952Z,9.02
2019-02-14T09:19:08.309Z,8.84
2019-02-14T09:21:37.585Z,8.88
2019-02-14T09:24:06.937Z,8.90
2019-02-14T09:26:36.289Z,8.78
2019-02-14T09:29:05.619Z,8.68
2019-02-14T09:31:35.001Z,8.64
2019-02-14T09:34:05.362Z,8.53
2019-02-14T09:36:34.679Z,8.57
2019-02-14T09:39:04.734Z,8.48
2019-02-14T09:41:34.054Z,8.36
2019-02-14T09:44:03.383Z,8.28
2019-02-14T09:46:33.022Z,8.23
2019-02-14T09:49:02.357Z,8.20
2019-02-14T09:51:31.682Z,8.27
2019-02-14T09:54:01.185Z,8.24
2019-02-14T09:56:30.511Z,8.26
2019-02-14T09:58:59.814Z,8.30
2019-02-14T10:01:29.198Z,8.23
2019-02-14T10:03:58.582Z,8.22
2019-02-14T10:06:36.190Z,8.27
2019-02-14T10:09:00.614Z,8.40
2019-02-14T10:11:30.189Z,8.30
2019-02-14T10:13:59.545Z,8.39
2019-02-14T10:16:28.879Z,8.52
2019-02-14T10:18:58.192Z,8.63
2019-02-14T10:21:27.582Z,8.75
2019-02-14T10:23:57.028Z,8.87
2019-02-14T10:26:26.308Z,8.87
2019-02-14T10:28:55.649Z,8.79
2019-02-14T10:31:25.002Z,8.74
2019-02-14T10:33:54.346Z,8.62
2019-02-14T10:36:23.695Z,8.70
2019-02-14T10:38:52.972Z,8.59
2019-02-14T10:41:22.264Z,8.58
2019-02-14T10:43:51.613Z,8.57
2019-02-14T10:46:21.032Z,8.65
2019-02-14T10:48:50.338Z,8.68
2019-02-14T10:51:19.639Z,8.67
2019-02-14T10:53:48.997Z,8.71
2019-02-14T10:56:18.344Z,8.64
2019-02-14T10:58:47.685Z,8.56
2019-02-14T11:01:17.159Z,8.47
2019-02-14T11:03:46.498Z,8.36
2019-02-14T11:06:15.817Z,8.20
2019-02-14T11:08:45.362Z,8.14
2019-02-14T11:11:14.746Z,8.05
2019-02-14T11:13:44.022Z,8.03
2019-02-14T11:16:13.409Z,7.99
2019-02-14T11:18:44.583Z,7.99
2019-02-14T11:21:13.832Z,7.99
2019-02-14T11:23:43.309Z,7.97
2019-02-14T11:26:12.593Z,7.97
2019-02-14T11:28:42.012Z,7.95
2019-02-14T11:31:11.275Z,8.02
2019-02-14T11:33:40.751Z,8.03
2019-02-14T11:36:10.117Z,8.07
2019-02-14T11:38:40.857Z,8.05
2019-02-14T11:41:10.253Z,8.02
2019-02-14T11:43:39.577Z,8.00
2019-02-14T11:46:08.887Z,8.01
2019-02-14T11:48:38.459Z,7.97
2019-02-14T11:51:07.793Z,7.97
2019-02-14T11:53:37.086Z,7.94
2019-02-14T11:56:06.617Z,7.91
2019-02-14T11:58:35.917Z,7.90
2019-02-14T12:01:05.465Z,7.94
2019-02-14T12:03:34.941Z,7.98
2019-02-14T12:06:04.210Z,8.00
2019-02-14T12:08:33.564Z,8.06
2019-02-14T12:11:03.053Z,8.09
2019-02-14T12:13:32.418Z,8.12
2019-02-14T12:16:01.746Z,8.11
2019-02-14T12:18:31.239Z,8.11
2019-02-14T12:21:00.539Z,8.13
2019-02-14T12:23:29.894Z,8.09
2019-02-14T12:25:59.405Z,8.09
2019-02-14T12:28:28.699Z,8.05
2019-02-14T12:30:58.012Z,8.00
2019-02-14T12:33:27.470Z,7.99
2019-02-14T12:35:56.809Z,7.99
2019-02-14T12:38:26.093Z,7.96
2019-02-14T12:40:55.395Z,7.96
2019-02-14T12:43:24.730Z,7.97
2019-02-14T12:45:54.021Z,8.00
2019-02-14T12:48:23.363Z,8.01
2019-02-14T12:50:52.654Z,8.01
2019-02-14T12:53:21.912Z,7.99
2019-02-14T12:55:51.410Z,7.99
2019-02-14T12:58:20.724Z,8.00
2019-02-14T13:00:50.009Z,8.02
2019-02-14T13:03:19.514Z,8.01
2019-02-14T13:05:48.840Z,8.01
2019-02-14T13:08:18.137Z,8.03
2019-02-14T13:10:47.512Z,8.07
2019-02-14T13:13:16.813Z,8.08
2019-02-14T13:15:46.088Z,8.08
2019-02-14T13:18:15.568Z,8.09
2019-02-14T13:20:44.898Z,8.14
2019-02-14T13:23:14.205Z,8.21
2019-02-14T13:25:43.525Z,8.21
2019-02-14T13:28:12.864Z,8.27
2019-02-14T13:30:42.203Z,8.31
2019-02-14T13:33:11.560Z,8.30
2019-02-14T13:35:41.971Z,8.22
2019-02-14T13:38:11.314Z,8.24
2019-02-14T13:40:40.612Z,8.24
2019-02-14T13:43:10.522Z,8.29
2019-02-14T13:45:39.917Z,8.34
2019-02-14T13:48:09.946Z,8.39
2019-02-14T13:50:39.254Z,8.35
2019-02-14T13:53:08.625Z,8.34
2019-02-14T13:55:38.019Z,8.39
2019-02-14T13:58:07.293Z,8.44
2019-02-14T14:00:36.609Z,8.44
2019-02-14T14:03:05.935Z,8.54
2019-02-14T14:05:35.397Z,8.48
2019-02-14T14:08:04.726Z,8.53
2019-02-14T14:10:34.194Z,8.51
2019-02-14T14:13:03.511Z,8.45
2019-02-14T14:15:32.795Z,8.40
2019-02-14T14:18:02.244Z,8.42
2019-02-14T14:20:31.602Z,8.38
2019-02-14T14:23:00.921Z,8.35
2019-02-14T14:25:30.336Z,8.33
2019-02-14T14:27:59.614Z,8.27
2019-02-14T14:30:28.933Z,8.37
2019-02-14T14:32:58.485Z,8.35
2019-02-14T14:35:27.796Z,8.30
2019-02-14T14:37:57.079Z,8.32
2019-02-14T14:40:26.727Z,8.28
2019-02-14T14:43:14.984Z,8.15
2019-02-14T14:46:01.193Z,8.09
2019-02-14T14:48:35.748Z,8.12
2019-02-14T14:51:05.310Z,7.99
2019-02-14T14:53:34.596Z,7.95
2019-02-14T14:56:03.889Z,7.97
2019-02-14T14:58:33.469Z,7.87
2019-02-14T15:01:02.803Z,7.87
2019-02-14T15:03:32.066Z,7.78
2019-02-14T15:06:01.501Z,7.64
2019-02-14T15:08:30.820Z,7.65
2019-02-14T15:11:00.110Z,7.50
2019-02-14T15:13:29.758Z,7.41
2019-02-14T15:15:59.027Z,7.29
2019-02-14T15:18:28.365Z,7.24
2019-02-14T15:20:57.678Z,7.08
2019-02-14T15:23:26.935Z,6.92
2019-02-14T15:25:56.295Z,6.87
2019-02-14T15:28:25.602Z,6.75
2019-02-14T15:30:55.004Z,6.60
2019-02-14T15:33:24.396Z,6.39
2019-02-14T15:35:53.872Z,6.35
2019-02-14T15:38:23.188Z,6.16
2019-02-14T15:40:52.539Z,6.11
2019-02-14T15:43:22.071Z,6.02
2019-02-14T15:45:51.425Z,6.05
2019-02-14T15:48:20.769Z,6.01
2019-02-14T15:50:51.509Z,5.98
2019-02-14T15:53:21.606Z,5.91
2019-02-14T15:55:51.099Z,5.86
2019-02-14T15:58:20.437Z,5.86
2019-02-14T16:00:51.677Z,5.76
2019-02-14T16:03:20.884Z,5.74
2019-02-14T16:05:50.245Z,5.68
2019-02-14T16:08:21.774Z,5.68
2019-02-14T16:10:54.056Z,5.67
2019-02-14T16:13:21.601Z,5.65
2019-02-14T16:15:51.094Z,5.60
2019-02-14T16:18:21.225Z,5.56
2019-02-14T16:20:51.594Z,5.56
2019-02-14T16:23:20.976Z,5.54
2019-02-14T16:25:51.989Z,5.52
2019-02-14T16:28:21.308Z,5.52
2019-02-14T16:30:52.433Z,5.53
2019-02-14T16:33:23.555Z,5.59
2019-02-14T16:35:53.189Z,5.57
2019-02-14T16:38:22.570Z,5.54
2019-02-14T16:40:51.889Z,5.57
2019-02-14T16:43:21.224Z,5.57
2019-02-14T16:45:50.538Z,5.55
2019-02-14T16:48:19.860Z,5.56
2019-02-14T16:50:49.180Z,5.55
2019-02-14T16:53:18.459Z,5.51
2019-02-14T16:55:47.783Z,5.52
2019-02-14T16:58:17.159Z,5.52
2019-02-14T17:00:46.498Z,5.50
2019-02-14T17:03:15.770Z,5.53
2019-02-14T17:05:45.229Z,5.54
2019-02-14T17:08:14.566Z,5.55
2019-02-14T17:10:43.892Z,5.54
2019-02-14T17:13:13.183Z,5.55
2019-02-14T17:15:42.497Z,5.56
2019-02-14T17:18:11.803Z,5.54
2019-02-14T17:20:41.353Z,5.55
2019-02-14T17:23:10.658Z,5.54
2019-02-14T17:25:39.915Z,5.55
2019-02-14T17:28:09.265Z,5.54
2019-02-14T17:30:38.575Z,5.54
2019-02-14T17:33:07.855Z,5.48
2019-02-14T17:35:37.264Z,5.51
2019-02-14T17:38:06.627Z,5.45
2019-02-14T17:40:35.891Z,5.49
2019-02-14T17:43:05.239Z,5.52
2019-02-14T17:45:34.529Z,5.48
2019-02-14T17:48:03.835Z,5.48
2019-02-14T17:50:33.149Z,5.47
2019-02-14T17:53:02.486Z,5.44
2019-02-14T17:55:31.833Z,5.42
2019-02-14T17:58:01.143Z,5.47
2019-02-14T18:00:31.237Z,5.50
2019-02-14T18:03:00.512Z,5.52
2019-02-14T18:05:29.843Z,5.50
2019-02-14T18:07:59.211Z,5.48
2019-02-14T18:10:28.545Z,5.47
2019-02-14T18:12:59.329Z,5.43
2019-02-14T18:15:28.645Z,5.50
2019-02-14T18:17:57.951Z,5.48
2019-02-14T18:20:27.278Z,5.45
2019-02-14T18:22:56.611Z,5.48
2019-02-14T18:25:25.899Z,5.51
2019-02-14T18:27:55.433Z,5.50
2019-02-14T18:30:24.738Z,5.48
2019-02-14T18:32:54.010Z,5.49
2019-02-14T18:35:23.489Z,5.50
2019-02-14T18:37:52.779Z,5.53
2019-02-14T18:40:22.098Z,5.57
2019-02-14T18:42:52.217Z,5.52
2019-02-14T18:45:21.496Z,5.55
2019-02-14T18:47:50.809Z,5.51
2019-02-14T18:50:20.179Z,5.51
2019-02-14T18:52:49.518Z,5.54
2019-02-14T18:55:18.830Z,5.56
2019-02-14T18:57:48.176Z,5.57
2019-02-14T19:00:17.545Z,5.54
2019-02-14T19:02:46.850Z,5.55
2019-02-14T19:05:16.209Z,5.56
2019-02-14T19:07:45.506Z,5.54
2019-02-14T19:10:14.967Z,5.57
2019-02-14T19:12:44.489Z,5.59
2019-02-14T19:15:14.073Z,5.58
2019-02-14T19:17:43.538Z,5.60
2019-02-14T19:20:13.199Z,5.59
2019-02-14T19:22:42.504Z,5.62
2019-02-14T19:25:11.956Z,5.64
2019-02-14T19:27:41.485Z,5.67
2019-02-14T19:30:11.062Z,5.70
2019-02-14T19:32:40.405Z,5.66
2019-02-14T19:35:10.143Z,5.67
2019-02-14T19:37:39.435Z,5.65
2019-02-14T19:40:08.886Z,5.68
2019-02-14T19:42:38.270Z,5.67
2019-02-14T19:45:08.321Z,5.69
2019-02-14T19:47:37.634Z,5.65
2019-02-14T19:50:08.155Z,5.63
2019-02-14T19:52:37.925Z,5.64
2019-02-14T19:55:07.589Z,5.63
2019-02-14T19:57:36.876Z,5.64
2019-02-14T20:00:07.303Z,5.69
2019-02-14T20:02:36.608Z,5.64
2019-02-14T20:05:06.758Z,5.60
2019-02-14T20:07:36.065Z,5.60
2019-02-14T20:10:05.927Z,5.60
2019-02-14T20:12:35.366Z,5.59
2019-02-14T20:15:05.095Z,5.60
2019-02-14T20:17:34.368Z,5.56
2019-02-14T20:20:03.698Z,5.57
2019-02-14T20:22:33.054Z,5.61
2019-02-14T20:25:02.341Z,5.63
2019-02-14T20:27:31.804Z,5.62
2019-02-14T20:30:01.108Z,5.61
2019-02-14T20:32:30.631Z,5.58
2019-02-14T20:35:01.708Z,5.61
2019-02-14T20:37:31.022Z,5.58
2019-02-14T20:40:00.331Z,5.55
2019-02-14T20:42:29.724Z,5.56
2019-02-14T20:44:59.031Z,5.56
2019-02-14T20:47:30.481Z,5.57
2019-02-14T20:49:59.772Z,5.59
2019-02-14T20:52:29.045Z,5.63
2019-02-14T20:54:58.422Z,5.65
2019-02-14T20:57:27.848Z,5.65
2019-02-14T20:59:57.205Z,5.64
2019-02-14T21:02:26.461Z,5.63
2019-02-14T21:04:55.759Z,5.65
2019-02-14T21:07:25.094Z,5.67
2019-02-14T21:09:54.530Z,5.73
2019-02-14T21:12:23.884Z,5.73
2019-02-14T21:14:54.521Z,5.74
2019-02-14T21:17:23.920Z,5.67
2019-02-14T21:19:53.239Z,5.66
2019-02-14T21:22:22.590Z,5.64
2019-02-14T21:24:52.071Z,5.71
2019-02-14T21:27:21.422Z,5.76
2019-02-14T21:29:50.762Z,5.75
2019-02-14T21:32:20.079Z,5.72
2019-02-14T21:34:49.406Z,5.72
2019-02-14T21:37:18.740Z,5.79
2019-02-14T21:39:48.128Z,5.81
2019-02-14T21:42:21.684Z,5.78
2019-02-14T21:44:48.472Z,5.74
2019-02-14T21:47:17.889Z,5.77
2019-02-14T21:49:47.265Z,5.79
2019-02-14T21:52:18.017Z,5.81
2019-02-14T21:54:47.542Z,5.84
2019-02-14T21:57:16.876Z,5.82
2019-02-14T21:59:46.218Z,5.84
2019-02-14T22:02:15.490Z,5.85
2019-02-14T22:04:44.819Z,5.83
2019-02-14T22:07:14.105Z,5.83
2019-02-14T22:09:43.503Z,5.87
2019-02-14T22:12:12.834Z,5.85
2019-02-14T22:14:42.125Z,5.83
2019-02-14T22:17:11.468Z,5.79
2019-02-14T22:19:40.749Z,5.83
2019-02-14T22:22:10.150Z,5.76
2019-02-14T22:24:39.752Z,5.82
2019-02-14T22:27:09.065Z,5.76
2019-02-14T22:29:38.359Z,5.73
2019-02-14T22:32:07.839Z,5.74
2019-02-14T22:34:37.186Z,5.65
2019-02-14T22:37:06.509Z,5.62
2019-02-14T22:39:35.856Z,5.60
2019-02-14T22:42:05.172Z,5.61
2019-02-14T22:44:34.472Z,5.55
2019-02-14T22:47:03.965Z,5.55
2019-02-14T22:49:33.324Z,5.60
2019-02-14T22:52:02.653Z,5.54
2019-02-14T22:54:32.055Z,5.54
2019-02-14T22:57:01.311Z,5.43
2019-02-14T22:59:30.622Z,5.35
2019-02-14T23:02:00.371Z,5.18
2019-02-14T23:04:29.697Z,5.02
2019-02-14T23:06:59.053Z,4.87
2019-02-14T23:09:28.513Z,4.68
2019-02-14T23:11:57.874Z,4.58
2019-02-14T23:14:27.234Z,4.42
2019-02-14T23:16:56.560Z,4.32
2019-02-14T23:19:26.168Z,4.16
2019-02-14T23:21:55.504Z,4.06
2019-02-14T23:24:24.871Z,3.96
2019-02-14T23:26:54.213Z,3.93
2019-02-14T23:29:23.493Z,3.86
2019-02-14T23:31:52.802Z,3.77
2019-02-14T23:34:22.198Z,3.66
2019-02-14T23:36:51.502Z,3.65
2019-02-14T23:39:20.943Z,3.59
2019-02-14T23:41:50.301Z,3.54
2019-02-14T23:44:19.639Z,3.59
2019-02-14T23:46:49.123Z,3.61
2019-02-14T23:49:18.493Z,3.72
2019-02-14T23:51:47.821Z,3.73
2019-02-14T23:54:17.148Z,3.70
2019-02-14T23:56:46.425Z,3.70
2019-02-14T23:59:15.774Z,3.67
